createdAt,value
2023-05-13T00:00:07.827Z,65.64
2023-05-13T00:02:33.968Z,65.74
2023-05-13T00:05:00.101Z,65.62
2023-05-13T00:07:26.217Z,65.58
2023-05-13T00:09:52.336Z,65.66
2023-05-13T00:12:18.440Z,65.71
2023-05-13T00:14:44.542Z,65.57
2023-05-13T00:17:10.646Z,65.59
2023-05-13T00:19:36.751Z,65.56
2023-05-13T00:22:02.835Z,65.69
2023-05-13T00:24:28.940Z,65.58
2023-05-13T00:26:55.047Z,65.76
2023-05-13T00:29:21.138Z,65.74
2023-05-13T00:31:47.380Z,65.69
2023-05-13T00:34:13.526Z,65.60
2023-05-13T00:36:39.621Z,65.57
2023-05-13T00:39:05.733Z,65.61
2023-05-13T00:41:31.854Z,65.63
2023-05-13T00:43:57.956Z,65.76
2023-05-13T00:46:24.198Z,65.74
2023-05-13T00:48:50.306Z,65.51
2023-05-13T00:51:16.414Z,65.74
2023-05-13T00:53:42.522Z,65.59
2023-05-13T00:56:08.616Z,65.63
2023-05-13T00:58:34.709Z,65.66
2023-05-13T01:01:00.936Z,65.69
2023-05-13T01:03:27.128Z,65.65
2023-05-13T01:05:53.259Z,65.57
2023-05-13T01:08:19.370Z,65.70
2023-05-13T01:10:45.472Z,65.60
2023-05-13T01:13:11.575Z,65.70
2023-05-13T01:15:37.755Z,65.76
2023-05-13T01:18:03.964Z,65.69
2023-05-13T01:20:30.083Z,65.63
2023-05-13T01:22:56.203Z,65.53
2023-05-13T01:25:22.304Z,65.58
2023-05-13T01:27:48.400Z,65.72
2023-05-13T01:30:14.514Z,65.71
2023-05-13T01:32:40.686Z,65.73
2023-05-13T01:35:06.826Z,65.56
2023-05-13T01:37:32.960Z,65.71
2023-05-13T01:39:59.065Z,65.56
2023-05-13T01:42:25.157Z,65.56
2023-05-13T01:44:51.274Z,65.63
2023-05-13T01:47:17.370Z,65.72
2023-05-13T01:49:43.458Z,65.59
2023-05-13T01:52:09.616Z,65.67
2023-05-13T01:54:35.713Z,65.71
2023-05-13T01:57:01.812Z,65.67
2023-05-13T01:59:27.930Z,65.72
2023-05-13T02:01:54.255Z,65.65
2023-05-13T02:04:20.458Z,65.73
2023-05-13T02:06:46.728Z,65.62
2023-05-13T02:09:12.818Z,65.54
2023-05-13T02:11:38.940Z,65.55
2023-05-13T02:14:05.714Z,65.66
2023-05-13T02:16:31.942Z,65.60
2023-05-13T02:19:00.774Z,65.58
2023-05-13T02:21:27.221Z,65.59
2023-05-13T02:23:53.406Z,65.71
2023-05-13T02:26:19.756Z,65.67
2023-05-13T02:28:46.389Z,65.56
2023-05-13T02:31:12.621Z,65.52
2023-05-13T02:33:38.892Z,65.67
2023-05-13T02:36:05.207Z,65.56
2023-05-13T02:38:32.119Z,65.62
2023-05-13T02:40:58.923Z,65.68
2023-05-13T02:43:26.884Z,65.52
2023-05-13T02:45:53.233Z,65.69
2023-05-13T02:48:19.550Z,65.62
2023-05-13T02:50:45.724Z,65.59
2023-05-13T02:53:11.839Z,65.65
2023-05-13T02:55:37.953Z,65.63
2023-05-13T02:58:04.053Z,65.65
2023-05-13T03:00:30.152Z,65.69
2023-05-13T03:02:56.368Z,65.54
2023-05-13T03:05:22.614Z,65.60
2023-05-13T03:07:48.715Z,65.52
2023-05-13T03:10:14.887Z,65.64
2023-05-13T03:12:41.015Z,65.53
2023-05-13T03:15:07.126Z,65.69
2023-05-13T03:17:33.235Z,65.48
2023-05-13T03:19:59.412Z,65.65
2023-05-13T03:22:25.529Z,65.52
2023-05-13T03:24:51.634Z,65.50
2023-05-13T03:27:17.756Z,65.59
2023-05-13T03:29:43.841Z,65.65
2023-05-13T03:32:09.923Z,65.59
2023-05-13T03:34:36.107Z,65.55
2023-05-13T03:37:02.230Z,65.72
2023-05-13T03:39:28.374Z,65.60
2023-05-13T03:41:54.499Z,65.55
2023-05-13T03:44:20.599Z,65.59
2023-05-13T03:46:46.742Z,65.63
2023-05-13T03:49:12.872Z,65.59
2023-05-13T03:51:38.971Z,65.68
2023-05-13T03:54:05.093Z,65.68
2023-05-13T03:56:31.243Z,65.68
2023-05-13T03:58:57.342Z,65.68
2023-05-13T04:01:23.438Z,65.46
2023-05-13T04:03:49.550Z,65.75
2023-05-13T04:06:15.639Z,65.58
2023-05-13T04:08:41.722Z,65.51
2023-05-13T04:11:07.843Z,65.62
2023-05-13T04:13:33.956Z,65.52
2023-05-13T04:16:00.068Z,65.67
2023-05-13T04:18:26.229Z,65.54
2023-05-13T04:20:52.364Z,65.55
2023-05-13T04:23:18.464Z,65.49
2023-05-13T04:25:44.636Z,65.54
2023-05-13T04:28:10.733Z,65.50
2023-05-13T04:30:36.836Z,65.61
2023-05-13T04:33:03.027Z,65.72
2023-05-13T04:35:29.149Z,65.71
2023-05-13T04:37:55.243Z,65.71
2023-05-13T04:40:21.638Z,65.61
2023-05-13T04:42:47.923Z,65.63
2023-05-13T04:45:14.024Z,65.70
2023-05-13T04:47:40.231Z,65.46
2023-05-13T04:50:06.351Z,65.70
2023-05-13T04:52:32.800Z,65.53
2023-05-13T04:54:58.917Z,65.60
2023-05-13T04:57:25.028Z,65.60
2023-05-13T04:59:51.119Z,65.69
2023-05-13T05:02:17.222Z,65.61
2023-05-13T05:04:43.312Z,65.69
2023-05-13T05:07:09.411Z,65.57
2023-05-13T05:09:35.527Z,65.60
2023-05-13T05:12:01.615Z,65.72
2023-05-13T05:14:27.720Z,65.58
2023-05-13T05:16:53.881Z,65.70
2023-05-13T05:19:20.054Z,65.54
2023-05-13T05:21:46.171Z,65.64
2023-05-13T05:24:12.295Z,65.66
2023-05-13T05:26:38.392Z,65.45
2023-05-13T05:29:04.505Z,65.59
2023-05-13T05:31:30.691Z,65.66
2023-05-13T05:33:56.811Z,65.64
2023-05-13T05:36:22.913Z,65.93
2023-05-13T05:38:49.025Z,65.62
2023-05-13T05:41:15.133Z,65.62
2023-05-13T05:43:41.233Z,65.58
2023-05-13T05:46:07.462Z,65.58
2023-05-13T05:48:34.715Z,65.60
2023-05-13T05:51:01.082Z,65.67
2023-05-13T05:53:27.199Z,65.68
2023-05-13T05:55:53.356Z,65.58
2023-05-13T05:58:19.474Z,65.57
2023-05-13T06:00:45.640Z,65.66
2023-05-13T06:03:11.883Z,65.67
2023-05-13T06:05:38.027Z,65.59
2023-05-13T06:08:04.143Z,65.64
2023-05-13T06:10:30.237Z,65.53
2023-05-13T06:12:56.326Z,65.58
2023-05-13T06:15:22.456Z,65.68
2023-05-13T06:17:48.636Z,65.70
2023-05-13T06:20:14.839Z,65.62
2023-05-13T06:22:40.962Z,65.59
2023-05-13T06:25:07.065Z,65.63
2023-05-13T06:27:33.183Z,65.64
2023-05-13T06:29:59.280Z,65.63
2023-05-13T06:32:25.409Z,65.63
2023-05-13T06:34:52.514Z,65.62
2023-05-13T06:37:20.049Z,65.41
2023-05-13T06:39:46.145Z,65.75
2023-05-13T06:42:14.216Z,65.53
2023-05-13T06:44:40.546Z,65.64
2023-05-13T06:47:06.662Z,65.65
2023-05-13T06:49:32.825Z,65.55
2023-05-13T06:51:58.921Z,65.58
2023-05-13T06:54:25.009Z,65.68
2023-05-13T06:56:51.101Z,65.61
2023-05-13T06:59:17.210Z,65.65
2023-05-13T07:01:43.316Z,65.72
2023-05-13T07:04:09.535Z,65.66
2023-05-13T07:06:35.817Z,65.58
2023-05-13T07:09:03.883Z,65.67
2023-05-13T07:11:33.429Z,65.57
2023-05-13T07:13:59.602Z,65.73
2023-05-13T07:16:25.691Z,65.61
2023-05-13T07:18:51.822Z,65.51
2023-05-13T07:21:17.977Z,65.66
2023-05-13T07:23:44.742Z,65.58
2023-05-13T07:26:10.953Z,65.31
2023-05-13T07:28:37.108Z,65.68
2023-05-13T07:31:03.221Z,65.58
2023-05-13T07:33:29.333Z,65.62
2023-05-13T07:35:55.549Z,65.57
2023-05-13T07:38:21.643Z,65.57
2023-05-13T07:40:47.740Z,65.64
2023-05-13T07:43:13.873Z,65.68
2023-05-13T07:45:39.971Z,65.51
2023-05-13T07:48:06.086Z,65.57
2023-05-13T07:50:32.195Z,65.55
2023-05-13T07:52:58.282Z,65.63
2023-05-13T07:55:26.256Z,65.61
2023-05-13T07:57:52.370Z,65.64
2023-05-13T08:00:18.475Z,65.68
2023-05-13T08:02:44.626Z,65.62
2023-05-13T08:05:10.890Z,65.57
2023-05-13T08:07:37.022Z,65.63
2023-05-13T08:10:03.121Z,65.66
2023-05-13T08:12:29.249Z,65.56
2023-05-13T08:14:55.359Z,65.58
2023-05-13T08:17:21.493Z,65.66
2023-05-13T08:19:47.677Z,65.52
2023-05-13T08:22:13.890Z,65.55
2023-05-13T08:24:39.990Z,65.65
2023-05-13T08:27:06.088Z,65.62
2023-05-13T08:29:32.199Z,65.56
2023-05-13T08:31:58.322Z,65.55
2023-05-13T08:34:24.518Z,65.51
2023-05-13T08:36:50.644Z,65.62
2023-05-13T08:39:16.781Z,65.57
2023-05-13T08:41:42.909Z,65.56
2023-05-13T08:44:09.000Z,65.53
2023-05-13T08:46:35.211Z,65.52
2023-05-13T08:49:01.358Z,65.51
2023-05-13T08:51:27.498Z,65.57
2023-05-13T08:53:53.604Z,65.69
2023-05-13T08:56:19.776Z,65.45
2023-05-13T08:58:45.878Z,65.60
2023-05-13T09:01:11.996Z,65.59
2023-05-13T09:03:38.127Z,65.46
2023-05-13T09:06:04.206Z,65.59
2023-05-13T09:08:30.297Z,65.46
2023-05-13T09:10:56.503Z,65.53
2023-05-13T09:13:22.623Z,65.52
2023-05-13T09:15:48.774Z,65.47
2023-05-13T09:18:17.862Z,65.52
2023-05-13T09:20:44.921Z,65.57
2023-05-13T09:23:11.103Z,65.43
2023-05-13T09:25:37.243Z,65.48
2023-05-13T09:28:03.341Z,65.39
2023-05-13T09:30:29.475Z,65.36
2023-05-13T09:32:55.628Z,65.48
2023-05-13T09:35:21.930Z,65.35
2023-05-13T09:37:48.283Z,65.43
2023-05-13T09:40:14.419Z,65.36
2023-05-13T09:42:40.537Z,65.32
2023-05-13T09:45:06.645Z,65.39
2023-05-13T09:47:32.867Z,65.37
2023-05-13T09:49:59.003Z,65.39
2023-05-13T09:52:32.690Z,65.44
2023-05-13T09:54:59.162Z,65.30
2023-05-13T09:57:26.067Z,65.35
2023-05-13T09:59:52.181Z,65.33
2023-05-13T10:02:18.324Z,65.27
2023-05-13T10:04:44.457Z,65.30
2023-05-13T10:07:10.567Z,65.29
2023-05-13T10:09:36.777Z,65.22
2023-05-13T10:12:02.896Z,65.41
2023-05-13T10:14:29.010Z,65.35
2023-05-13T10:16:55.246Z,65.23
2023-05-13T10:19:23.467Z,65.22
2023-05-13T10:21:49.572Z,65.37
2023-05-13T10:24:15.763Z,65.27
2023-05-13T10:26:41.862Z,65.22
2023-05-13T10:29:07.982Z,65.25
2023-05-13T10:31:34.142Z,65.32
2023-05-13T10:34:00.265Z,65.32
2023-05-13T10:36:26.391Z,65.31
2023-05-13T10:38:52.548Z,65.18
2023-05-13T10:41:18.654Z,65.27
2023-05-13T10:43:44.753Z,65.22
2023-05-13T10:46:10.910Z,65.15
2023-05-13T10:48:37.081Z,65.22
2023-05-13T10:51:03.186Z,65.23
2023-05-13T10:53:29.301Z,65.24
2023-05-13T10:55:55.421Z,65.17
2023-05-13T10:58:21.545Z,65.13
2023-05-13T11:00:47.663Z,65.06
2023-05-13T11:03:13.899Z,65.10
2023-05-13T11:05:40.089Z,65.16
2023-05-13T11:08:06.207Z,65.16
2023-05-13T11:10:32.293Z,65.34
2023-05-13T11:12:58.394Z,65.04
2023-05-13T11:15:24.586Z,65.21
2023-05-13T11:17:50.692Z,65.25
2023-05-13T11:20:23.058Z,65.12
2023-05-13T11:22:49.352Z,65.17
2023-05-13T11:25:15.444Z,65.09
2023-05-13T11:27:41.550Z,64.86
2023-05-13T11:30:07.785Z,65.04
2023-05-13T11:32:33.955Z,65.13
2023-05-13T11:35:00.059Z,65.00
2023-05-13T11:37:26.219Z,65.13
2023-05-13T11:39:52.312Z,65.14
2023-05-13T11:42:18.428Z,65.00
2023-05-13T11:44:44.561Z,65.03
2023-05-13T11:47:10.701Z,65.02
2023-05-13T11:49:36.827Z,64.94
2023-05-13T11:52:03.020Z,65.13
2023-05-13T11:54:29.119Z,64.80
2023-05-13T11:56:55.208Z,64.92
2023-05-13T11:59:21.340Z,65.11
2023-05-13T12:01:47.450Z,65.11
2023-05-13T12:04:13.545Z,65.02
2023-05-13T12:06:39.653Z,65.10
2023-05-13T12:09:05.776Z,65.04
2023-05-13T12:11:31.903Z,65.00
2023-05-13T12:13:58.073Z,65.13
2023-05-13T12:16:24.271Z,65.04
2023-05-13T12:18:50.477Z,65.23
2023-05-13T12:21:17.136Z,65.12
2023-05-13T12:23:43.279Z,64.99
2023-05-13T12:26:09.444Z,65.18
2023-05-13T12:28:35.541Z,64.99
2023-05-13T12:31:01.708Z,65.10
2023-05-13T12:33:27.838Z,65.02
2023-05-13T12:35:53.998Z,65.23
2023-05-13T12:38:20.130Z,65.16
2023-05-13T12:40:46.299Z,64.98
2023-05-13T12:43:12.424Z,65.09
2023-05-13T12:45:41.201Z,65.03
2023-05-13T12:48:08.775Z,65.14
2023-05-13T12:50:34.918Z,65.03
2023-05-13T12:53:01.019Z,65.14
2023-05-13T12:55:27.134Z,65.07
2023-05-13T12:57:53.354Z,65.10
2023-05-13T13:00:19.436Z,64.98
2023-05-13T13:02:45.638Z,64.94
2023-05-13T13:05:11.822Z,65.18
2023-05-13T13:07:37.936Z,65.07
2023-05-13T13:10:04.066Z,65.07
2023-05-13T13:12:30.192Z,65.05
2023-05-13T13:14:56.279Z,64.97
2023-05-13T13:17:22.460Z,65.00
2023-05-13T13:19:48.810Z,65.08
2023-05-13T13:22:14.911Z,65.10
2023-05-13T13:24:41.016Z,65.09
2023-05-13T13:27:07.145Z,64.97
2023-05-13T13:29:33.243Z,65.06
2023-05-13T13:31:59.372Z,65.10
2023-05-13T13:34:25.572Z,65.10
2023-05-13T13:36:51.674Z,65.14
2023-05-13T13:39:17.782Z,65.07
2023-05-13T13:41:43.924Z,65.08
2023-05-13T13:44:10.019Z,65.20
2023-05-13T13:46:36.195Z,65.21
2023-05-13T13:49:10.187Z,65.11
2023-05-13T13:51:42.786Z,65.21
2023-05-13T13:54:08.913Z,65.09
2023-05-13T13:56:35.035Z,65.07
2023-05-13T13:59:01.129Z,65.25
2023-05-13T14:01:27.311Z,65.05
2023-05-13T14:03:53.507Z,65.24
2023-05-13T14:06:19.713Z,65.08
2023-05-13T14:08:45.817Z,65.12
2023-05-13T14:11:11.928Z,65.10
2023-05-13T14:13:38.020Z,65.10
2023-05-13T14:16:04.161Z,65.08
2023-05-13T14:18:30.302Z,65.18
2023-05-13T14:20:56.488Z,65.19
2023-05-13T14:23:22.607Z,65.11
2023-05-13T14:25:48.710Z,65.24
2023-05-13T14:28:14.810Z,65.11
2023-05-13T14:30:40.920Z,65.11
2023-05-13T14:33:07.073Z,65.19
2023-05-13T14:35:33.233Z,65.31
2023-05-13T14:37:59.419Z,65.18
2023-05-13T14:40:25.535Z,65.19
2023-05-13T14:42:51.655Z,65.16
2023-05-13T14:45:18.821Z,65.12
2023-05-13T14:47:45.128Z,65.24
2023-05-13T14:50:11.282Z,65.14
2023-05-13T14:52:37.413Z,65.30
2023-05-13T14:55:03.510Z,65.38
2023-05-13T14:57:29.622Z,65.15
2023-05-13T14:59:56.442Z,65.22
2023-05-13T15:02:23.789Z,65.22
2023-05-13T15:04:49.977Z,65.28
2023-05-13T15:07:16.247Z,65.27
2023-05-13T15:09:42.355Z,65.21
2023-05-13T15:12:08.441Z,65.20
2023-05-13T15:14:34.571Z,65.27
2023-05-13T15:17:00.732Z,65.23
2023-05-13T15:19:26.891Z,65.32
2023-05-13T15:21:53.396Z,65.41
2023-05-13T15:24:19.501Z,65.35
2023-05-13T15:26:45.603Z,65.30
2023-05-13T15:29:11.729Z,65.23
2023-05-13T15:31:37.820Z,65.39
2023-05-13T15:34:03.914Z,65.19
2023-05-13T15:36:30.029Z,65.38
2023-05-13T15:38:56.173Z,65.21
2023-05-13T15:41:22.272Z,65.37
2023-05-13T15:43:48.395Z,65.28
2023-05-13T15:46:14.599Z,65.28
2023-05-13T15:48:40.748Z,65.38
2023-05-13T15:51:06.870Z,65.36
2023-05-13T15:53:32.967Z,65.23
2023-05-13T15:55:59.075Z,65.33
2023-05-13T15:58:25.187Z,65.36
2023-05-13T16:00:51.294Z,65.38
2023-05-13T16:03:17.387Z,65.36
2023-05-13T16:05:43.522Z,65.30
2023-05-13T16:08:09.645Z,65.44
2023-05-13T16:10:35.810Z,65.35
2023-05-13T16:13:01.996Z,65.26
2023-05-13T16:15:28.082Z,65.50
2023-05-13T16:17:54.204Z,65.29
2023-05-13T16:20:20.497Z,65.27
2023-05-13T16:22:46.737Z,65.27
2023-05-13T16:25:12.857Z,65.29
2023-05-13T16:27:39.383Z,65.52
2023-05-13T16:30:05.479Z,65.28
2023-05-13T16:32:31.625Z,65.24
2023-05-13T16:34:57.767Z,65.36
2023-05-13T16:37:23.872Z,65.28
2023-05-13T16:39:49.995Z,65.32
2023-05-13T16:42:16.186Z,65.41
2023-05-13T16:44:42.280Z,65.35
2023-05-13T16:47:08.403Z,65.35
2023-05-13T16:49:34.554Z,65.35
2023-05-13T16:52:00.659Z,65.39
2023-05-13T16:54:26.779Z,65.41
2023-05-13T16:56:52.909Z,65.34
2023-05-13T16:59:19.001Z,65.44
2023-05-13T17:01:45.185Z,65.38
2023-05-13T17:04:11.324Z,65.50
2023-05-13T17:06:37.415Z,65.57
2023-05-13T17:09:03.498Z,65.51
2023-05-13T17:11:29.669Z,65.42
2023-05-13T17:13:55.785Z,65.60
2023-05-13T17:16:21.948Z,65.66
2023-05-13T17:18:48.107Z,65.60
2023-05-13T17:21:14.262Z,65.46
2023-05-13T17:23:40.383Z,65.45
2023-05-13T17:26:06.529Z,65.47
2023-05-13T17:28:32.627Z,65.44
2023-05-13T17:30:58.801Z,65.54
2023-05-13T17:33:24.947Z,65.60
2023-05-13T17:35:51.046Z,65.47
2023-05-13T17:38:17.149Z,65.55
2023-05-13T17:40:43.271Z,65.45
2023-05-13T17:43:09.361Z,65.38
2023-05-13T17:45:35.522Z,65.58
2023-05-13T17:48:01.877Z,65.59
2023-05-13T17:50:28.065Z,65.41
2023-05-13T17:52:54.148Z,65.52
2023-05-13T17:55:20.265Z,65.48
2023-05-13T17:57:46.376Z,65.44
2023-05-13T18:00:12.496Z,65.41
2023-05-13T18:02:38.671Z,65.48
2023-05-13T18:05:04.899Z,65.62
2023-05-13T18:07:31.038Z,65.55
2023-05-13T18:09:57.171Z,65.69
2023-05-13T18:12:23.284Z,65.59
2023-05-13T18:14:49.377Z,65.63
2023-05-13T18:17:15.623Z,65.47
2023-05-13T18:19:41.857Z,65.62
2023-05-13T18:22:07.981Z,65.51
2023-05-13T18:24:36.142Z,65.64
2023-05-13T18:27:02.239Z,65.59
2023-05-13T18:29:28.341Z,65.64
2023-05-13T18:31:54.686Z,65.65
2023-05-13T18:34:20.876Z,65.52
2023-05-13T18:36:47.036Z,65.65
2023-05-13T18:39:13.158Z,65.52
2023-05-13T18:41:39.252Z,65.55
2023-05-13T18:44:05.348Z,65.47
2023-05-13T18:46:31.561Z,65.58
2023-05-13T18:48:57.704Z,65.57
2023-05-13T18:51:23.844Z,65.57
2023-05-13T18:53:50.004Z,65.57
2023-05-13T18:56:16.199Z,65.58
2023-05-13T18:58:42.299Z,65.60
2023-05-13T19:01:08.516Z,65.57
2023-05-13T19:03:34.759Z,65.55
2023-05-13T19:06:00.873Z,65.54
2023-05-13T19:08:27.022Z,65.67
2023-05-13T19:10:53.110Z,65.52
2023-05-13T19:13:19.198Z,65.53
2023-05-13T19:15:45.294Z,65.70
2023-05-13T19:18:11.481Z,65.55
2023-05-13T19:20:37.711Z,65.71
2023-05-13T19:23:03.914Z,65.76
2023-05-13T19:25:30.033Z,65.53
2023-05-13T19:27:56.108Z,65.59
2023-05-13T19:30:22.462Z,65.67
2023-05-13T19:32:48.848Z,65.56
2023-05-13T19:35:15.003Z,65.65
2023-05-13T19:37:41.157Z,65.69
2023-05-13T19:40:07.262Z,65.65
2023-05-13T19:42:33.381Z,65.55
2023-05-13T19:44:59.517Z,65.69
2023-05-13T19:47:25.638Z,65.75
2023-05-13T19:49:51.777Z,65.65
2023-05-13T19:52:17.946Z,65.59
2023-05-13T19:54:44.051Z,65.58
2023-05-13T19:57:10.162Z,65.65
2023-05-13T19:59:36.283Z,65.61
2023-05-13T20:02:02.430Z,65.69
2023-05-13T20:04:28.544Z,65.60
2023-05-13T20:06:54.664Z,65.61
2023-05-13T20:09:20.760Z,65.76
2023-05-13T20:11:46.879Z,65.58
2023-05-13T20:14:13.018Z,65.68
2023-05-13T20:16:39.172Z,65.63
2023-05-13T20:19:05.355Z,65.72
2023-05-13T20:21:31.616Z,65.67
2023-05-13T20:23:57.707Z,65.61
2023-05-13T20:26:23.800Z,65.53
2023-05-13T20:28:49.911Z,65.64
2023-05-13T20:31:16.092Z,65.69
2023-05-13T20:33:42.228Z,65.60
2023-05-13T20:36:08.321Z,65.78
2023-05-13T20:38:34.427Z,65.64
2023-05-13T20:41:00.517Z,65.65
2023-05-13T20:43:26.625Z,65.60
2023-05-13T20:45:52.895Z,65.63
2023-05-13T20:48:19.029Z,65.74
2023-05-13T20:50:45.201Z,65.74
2023-05-13T20:53:11.311Z,65.74
2023-05-13T20:55:37.438Z,65.56
2023-05-13T20:58:03.558Z,65.54
2023-05-13T21:00:29.655Z,65.60
2023-05-13T21:02:55.789Z,65.61
2023-05-13T21:05:22.367Z,65.58
2023-05-13T21:07:48.693Z,65.58
2023-05-13T21:10:14.793Z,65.62
2023-05-13T21:12:40.916Z,65.72
2023-05-13T21:15:07.009Z,65.72
2023-05-13T21:17:33.234Z,65.72
2023-05-13T21:19:59.422Z,65.77
2023-05-13T21:22:25.537Z,65.73
2023-05-13T21:24:51.637Z,65.63
2023-05-13T21:27:17.794Z,65.56
2023-05-13T21:29:43.922Z,65.74
2023-05-13T21:32:10.020Z,65.70
2023-05-13T21:34:36.150Z,65.76
2023-05-13T21:37:02.245Z,65.75
2023-05-13T21:39:28.375Z,65.55
2023-05-13T21:41:54.544Z,65.71
2023-05-13T21:44:20.674Z,65.63
2023-05-13T21:46:46.775Z,65.55
2023-05-13T21:49:12.988Z,65.58
2023-05-13T21:51:39.203Z,65.58
2023-05-13T21:54:05.304Z,65.72
2023-05-13T21:56:31.532Z,65.72
2023-05-13T21:58:57.639Z,65.60
2023-05-13T22:01:23.764Z,65.70
2023-05-13T22:03:49.926Z,65.58
2023-05-13T22:06:16.039Z,65.71
2023-05-13T22:11:17.233Z,65.55
2023-05-13T22:13:43.338Z,65.58
2023-05-13T22:16:09.522Z,65.70
2023-05-13T22:18:35.967Z,65.69
2023-05-13T22:21:02.179Z,65.69
2023-05-13T22:23:28.277Z,65.71
2023-05-13T22:25:54.401Z,65.50
2023-05-13T22:28:20.509Z,65.55
2023-05-13T22:30:46.604Z,65.60
2023-05-13T22:33:12.793Z,65.48
2023-05-13T22:35:38.943Z,65.52
2023-05-13T22:38:05.050Z,65.70
2023-05-13T22:40:31.192Z,65.53
2023-05-13T22:42:57.291Z,65.63
2023-05-13T22:45:23.411Z,65.56
2023-05-13T22:47:49.735Z,65.77
2023-05-13T22:50:15.863Z,65.75
2023-05-13T22:52:41.942Z,65.58
2023-05-13T22:55:08.052Z,65.58
2023-05-13T22:57:34.159Z,65.71
2023-05-13T23:00:00.248Z,65.54
2023-05-13T23:02:26.430Z,65.61
2023-05-13T23:04:52.564Z,65.61
2023-05-13T23:07:18.670Z,65.62
2023-05-13T23:09:44.816Z,65.68
2023-05-13T23:12:10.913Z,65.67
2023-05-13T23:14:37.017Z,65.64
2023-05-13T23:17:03.127Z,65.60
2023-05-13T23:19:29.217Z,65.62
2023-05-13T23:21:55.327Z,65.73
2023-05-13T23:24:21.454Z,65.59
2023-05-13T23:26:48.180Z,65.58
2023-05-13T23:29:14.350Z,65.78
2023-05-13T23:31:40.736Z,65.64
2023-05-13T23:34:06.870Z,65.70
2023-05-13T23:36:32.974Z,65.63
2023-05-13T23:38:59.105Z,65.74
2023-05-13T23:41:25.221Z,65.73
2023-05-13T23:43:51.324Z,65.62
2023-05-13T23:46:17.492Z,65.67
2023-05-13T23:48:43.762Z,65.57
2023-05-13T23:51:09.962Z,65.53
2023-05-13T23:53:36.076Z,65.66
2023-05-13T23:56:02.170Z,65.61
2023-05-13T23:58:28.314Z,65.59
